sensor_id;sensor_type;location;lat;lon;timestamp;pressure;altitude;pressure_sealevel;temperature;humidity
28588;BME280;15787;49.662;10.162;2023-03-22T00:00:29;98924.16;;;7.23;100.00
28588;BME280;15787;49.662;10.162;2023-03-22T00:03:02;98924.25;;;7.16;100.00
28588;BME280;15787;49.662;10.162;2023-03-22T00:05:36;98917.34;;;7.31;100.00
28588;BME280;15787;49.662;10.162;2023-03-22T00:08:11;98924.25;;;7.53;100.00
28588;BME280;15787;49.662;10.162;2023-03-22T00:10:46;98913.69;;;7.37;100.00
28588;BME280;15787;49.662;10.162;2023-03-22T00:13:19;98914.31;;;7.18;100.00
28588;BME280;15787;49.662;10.162;2023-03-22T00:15:54;98912.22;;;7.29;100.00
28588;BME280;15787;49.662;10.162;2023-03-22T00:18:28;98910.91;;;7.37;100.00
28588;BME280;15787;49.662;10.162;2023-03-22T00:21:01;98919.25;;;7.37;100.00
28588;BME280;15787;49.662;10.162;2023-03-22T00:23:34;98917.16;;;7.48;100.00
28588;BME280;15787;49.662;10.162;2023-03-22T00:26:10;98913.69;;;7.37;100.00
28588;BME280;15787;49.662;10.162;2023-03-22T00:28:43;98911.41;;;7.66;100.00
28588;BME280;15787;49.662;10.162;2023-03-22T00:31:18;98907.09;;;7.61;100.00
28588;BME280;15787;49.662;10.162;2023-03-22T00:33:51;98905.81;;;7.70;100.00
28588;BME280;15787;49.662;10.162;2023-03-22T00:36:24;98907.63;;;7.49;100.00
28588;BME280;15787;49.662;10.162;2023-03-22T00:38:57;98909.19;;;7.50;100.00
28588;BME280;15787;49.662;10.162;2023-03-22T00:41:31;98914.47;;;7.41;100.00
28588;BME280;15787;49.662;10.162;2023-03-22T00:44:04;98901.09;;;7.29;100.00
28588;BME280;15787;49.662;10.162;2023-03-22T00:46:37;98902.00;;;7.19;100.00
28588;BME280;15787;49.662;10.162;2023-03-22T00:49:10;98897.78;;;7.04;100.00
28588;BME280;15787;49.662;10.162;2023-03-22T00:51:43;98899.06;;;6.96;100.00
28588;BME280;15787;49.662;10.162;2023-03-22T00:54:17;98886.56;;;7.15;100.00
28588;BME280;15787;49.662;10.162;2023-03-22T00:56:51;98892.28;;;6.97;100.00
28588;BME280;15787;49.662;10.162;2023-03-22T00:59:24;98888.69;;;7.00;100.00
28588;BME280;15787;49.662;10.162;2023-03-22T01:01:59;98890.75;;;6.92;100.00
28588;BME280;15787;49.662;10.162;2023-03-22T01:04:35;98886.19;;;7.13;100.00
28588;BME280;15787;49.662;10.162;2023-03-22T01:07:08;98895.38;;;7.06;100.00
28588;BME280;15787;49.662;10.162;2023-03-22T01:09:41;98883.91;;;7.04;100.00
28588;BME280;15787;49.662;10.162;2023-03-22T01:12:18;98875.53;;;7.08;100.00
28588;BME280;15787;49.662;10.162;2023-03-22T01:14:51;98883.72;;;6.81;100.00
28588;BME280;15787;49.662;10.162;2023-03-22T01:17:24;98883.38;;;6.75;100.00
28588;BME280;15787;49.662;10.162;2023-03-22T01:19:57;98878.91;;;6.85;100.00
28588;BME280;15787;49.662;10.162;2023-03-22T01:22:30;98868.69;;;6.78;100.00
28588;BME280;15787;49.662;10.162;2023-03-22T01:25:04;98865.75;;;6.92;100.00
28588;BME280;15787;49.662;10.162;2023-03-22T01:27:38;98857.22;;;7.14;100.00
28588;BME280;15787;49.662;10.162;2023-03-22T01:30:12;98856.47;;;7.10;100.00
28588;BME280;15787;49.662;10.162;2023-03-22T01:32:45;98857.31;;;7.07;100.00
28588;BME280;15787;49.662;10.162;2023-03-22T01:35:20;98865.66;;;6.59;100.00
28588;BME280;15787;49.662;10.162;2023-03-22T01:37:53;98862.63;;;6.90;100.00
28588;BME280;15787;49.662;10.162;2023-03-22T01:40:26;98861.91;;;6.83;100.00
28588;BME280;15787;49.662;10.162;2023-03-22T01:43:01;98864.94;;;6.95;100.00
28588;BME280;15787;49.662;10.162;2023-03-22T01:45:37;98855.81;;;6.98;100.00
28588;BME280;15787;49.662;10.162;2023-03-22T01:48:20;98851.16;;;6.88;100.00
28588;BME280;15787;49.662;10.162;2023-03-22T01:51:03;98851.03;;;6.99;100.00
28588;BME280;15787;49.662;10.162;2023-03-22T01:53:47;98843.81;;;7.05;100.00
28588;BME280;15787;49.662;10.162;2023-03-22T01:56:24;98839.59;;;6.93;100.00
28588;BME280;15787;49.662;10.162;2023-03-22T01:59:02;98835.31;;;6.85;100.00
28588;BME280;15787;49.662;10.162;2023-03-22T02:01:52;98837.22;;;6.92;100.00
28588;BME280;15787;49.662;10.162;2023-03-22T02:04:26;98829.28;;;6.94;100.00
28588;BME280;15787;49.662;10.162;2023-03-22T02:07:09;98833.22;;;6.96;100.00
28588;BME280;15787;49.662;10.162;2023-03-22T02:09:49;98830.09;;;6.91;100.00
28588;BME280;15787;49.662;10.162;2023-03-22T02:12:30;98825.56;;;7.08;100.00
28588;BME280;15787;49.662;10.162;2023-03-22T02:15:24;98837.88;;;7.07;100.00
28588;BME280;15787;49.662;10.162;2023-03-22T02:18:25;98834.91;;;7.24;100.00
28588;BME280;15787;49.662;10.162;2023-03-22T02:21:53;98834.19;;;7.17;100.00
28588;BME280;15787;49.662;10.162;2023-03-22T02:27:52;98827.50;;;7.11;100.00
28588;BME280;15787;49.662;10.162;2023-03-22T02:30:52;98825.28;;;6.98;100.00
28588;BME280;15787;49.662;10.162;2023-03-22T02:36:55;98821.47;;;6.82;100.00
28588;BME280;15787;49.662;10.162;2023-03-22T02:39:39;98814.75;;;6.79;100.00
28588;BME280;15787;49.662;10.162;2023-03-22T02:42:31;98809.84;;;6.94;100.00
28588;BME280;15787;49.662;10.162;2023-03-22T02:45:13;98820.81;;;7.08;100.00
28588;BME280;15787;49.662;10.162;2023-03-22T02:47:52;98811.34;;;7.02;100.00
28588;BME280;15787;49.662;10.162;2023-03-22T02:50:29;98812.69;;;6.87;100.00
28588;BME280;15787;49.662;10.162;2023-03-22T02:53:09;98811.31;;;7.06;100.00
28588;BME280;15787;49.662;10.162;2023-03-22T02:55:50;98805.97;;;6.84;100.00
28588;BME280;15787;49.662;10.162;2023-03-22T02:58:29;98808.63;;;6.98;100.00
28588;BME280;15787;49.662;10.162;2023-03-22T03:01:08;98809.16;;;6.83;100.00
28588;BME280;15787;49.662;10.162;2023-03-22T03:03:46;98808.81;;;6.81;100.00
28588;BME280;15787;49.662;10.162;2023-03-22T03:06:21;98807.19;;;6.83;100.00
28588;BME280;15787;49.662;10.162;2023-03-22T03:08:56;98806.69;;;6.92;100.00
28588;BME280;15787;49.662;10.162;2023-03-22T03:11:34;98809.56;;;6.81;100.00
28588;BME280;15787;49.662;10.162;2023-03-22T03:14:18;98803.16;;;6.88;100.00
28588;BME280;15787;49.662;10.162;2023-03-22T03:17:01;98812.50;;;7.05;100.00
28588;BME280;15787;49.662;10.162;2023-03-22T03:19:41;98809.47;;;6.92;100.00
28588;BME280;15787;49.662;10.162;2023-03-22T03:22:30;98807.47;;;6.92;100.00
28588;BME280;15787;49.662;10.162;2023-03-22T03:25:12;98811.13;;;6.86;100.00
28588;BME280;15787;49.662;10.162;2023-03-22T03:27:57;98804.88;;;6.75;100.00
28588;BME280;15787;49.662;10.162;2023-03-22T03:30:35;98808.09;;;6.70;100.00
28588;BME280;15787;49.662;10.162;2023-03-22T03:33:14;98810.34;;;6.85;100.00
28588;BME280;15787;49.662;10.162;2023-03-22T03:35:51;98809.19;;;6.79;100.00
28588;BME280;15787;49.662;10.162;2023-03-22T03:38:28;98811.53;;;6.84;100.00
28588;BME280;15787;49.662;10.162;2023-03-22T03:41:06;98814.72;;;6.83;100.00
28588;BME280;15787;49.662;10.162;2023-03-22T03:43:42;98813.22;;;6.75;100.00
28588;BME280;15787;49.662;10.162;2023-03-22T03:46:17;98813.34;;;7.02;100.00
28588;BME280;15787;49.662;10.162;2023-03-22T03:48:51;98826.72;;;6.73;100.00
28588;BME280;15787;49.662;10.162;2023-03-22T03:51:26;98808.78;;;7.18;100.00
28588;BME280;15787;49.662;10.162;2023-03-22T03:53:59;98821.25;;;7.03;100.00
28588;BME280;15787;49.662;10.162;2023-03-22T03:56:32;98822.03;;;7.04;100.00
28588;BME280;15787;49.662;10.162;2023-03-22T03:59:06;98806.72;;;7.26;100.00
28588;BME280;15787;49.662;10.162;2023-03-22T04:01:39;98814.25;;;7.25;100.00
28588;BME280;15787;49.662;10.162;2023-03-22T04:04:20;98820.81;;;7.42;100.00
28588;BME280;15787;49.662;10.162;2023-03-22T04:07:04;98815.25;;;7.72;100.00
28588;BME280;15787;49.662;10.162;2023-03-22T04:09:41;98820.34;;;7.77;100.00
28588;BME280;15787;49.662;10.162;2023-03-22T04:12:33;98819.78;;;7.89;100.00
28588;BME280;15787;49.662;10.162;2023-03-22T04:15:27;98825.09;;;8.07;100.00
28588;BME280;15787;49.662;10.162;2023-03-22T04:18:03;98830.75;;;8.00;100.00
28588;BME280;15787;49.662;10.162;2023-03-22T04:20:37;98820.03;;;7.72;100.00
28588;BME280;15787;49.662;10.162;2023-03-22T04:23:12;98823.53;;;8.06;100.00
28588;BME280;15787;49.662;10.162;2023-03-22T04:25:46;98821.09;;;8.08;100.00
28588;BME280;15787;49.662;10.162;2023-03-22T04:28:27;98824.97;;;7.87;100.00
28588;BME280;15787;49.662;10.162;2023-03-22T04:31:02;98820.19;;;8.14;100.00
28588;BME280;15787;49.662;10.162;2023-03-22T04:33:49;98815.44;;;8.15;100.00
28588;BME280;15787;49.662;10.162;2023-03-22T04:36:37;98820.03;;;8.25;100.00
28588;BME280;15787;49.662;10.162;2023-03-22T04:39:20;98806.03;;;8.05;100.00
28588;BME280;15787;49.662;10.162;2023-03-22T04:42:02;98809.72;;;8.25;100.00
28588;BME280;15787;49.662;10.162;2023-03-22T04:44:37;98799.97;;;7.87;100.00
28588;BME280;15787;49.662;10.162;2023-03-22T04:47:12;98794.13;;;8.05;100.00
28588;BME280;15787;49.662;10.162;2023-03-22T04:49:45;98786.31;;;7.96;100.00
28588;BME280;15787;49.662;10.162;2023-03-22T04:52:20;98793.09;;;7.95;100.00
28588;BME280;15787;49.662;10.162;2023-03-22T04:54:56;98792.88;;;8.09;100.00
28588;BME280;15787;49.662;10.162;2023-03-22T04:57:29;98789.88;;;7.97;100.00
28588;BME280;15787;49.662;10.162;2023-03-22T05:00:04;98787.63;;;8.15;100.00
28588;BME280;15787;49.662;10.162;2023-03-22T05:02:41;98786.06;;;7.87;100.00
28588;BME280;15787;49.662;10.162;2023-03-22T05:05:24;98787.00;;;8.04;100.00
28588;BME280;15787;49.662;10.162;2023-03-22T05:07:58;98780.38;;;8.21;100.00
28588;BME280;15787;49.662;10.162;2023-03-22T05:10:31;98770.94;;;7.88;100.00
28588;BME280;15787;49.662;10.162;2023-03-22T05:13:04;98767.53;;;7.77;100.00
28588;BME280;15787;49.662;10.162;2023-03-22T05:15:43;98762.72;;;7.81;100.00
28588;BME280;15787;49.662;10.162;2023-03-22T05:18:21;98762.84;;;7.71;100.00
28588;BME280;15787;49.662;10.162;2023-03-22T05:20:56;98756.63;;;7.90;100.00
28588;BME280;15787;49.662;10.162;2023-03-22T05:23:29;98752.50;;;7.75;100.00
28588;BME280;15787;49.662;10.162;2023-03-22T05:26:02;98753.47;;;7.61;100.00
28588;BME280;15787;49.662;10.162;2023-03-22T05:28:36;98751.47;;;7.61;100.00
28588;BME280;15787;49.662;10.162;2023-03-22T05:31:17;98749.41;;;7.69;100.00
28588;BME280;15787;49.662;10.162;2023-03-22T05:34:04;98747.69;;;7.48;100.00
28588;BME280;15787;49.662;10.162;2023-03-22T05:36:40;98746.91;;;7.48;100.00
28588;BME280;15787;49.662;10.162;2023-03-22T05:39:33;98747.28;;;7.50;100.00
28588;BME280;15787;49.662;10.162;2023-03-22T05:42:06;98759.13;;;7.54;100.00
28588;BME280;15787;49.662;10.162;2023-03-22T05:44:40;98760.78;;;7.48;100.00
28588;BME280;15787;49.662;10.162;2023-03-22T05:47:16;98769.09;;;7.78;100.00
28588;BME280;15787;49.662;10.162;2023-03-22T05:49:59;98770.91;;;7.92;100.00
28588;BME280;15787;49.662;10.162;2023-03-22T05:52:34;98766.53;;;7.91;100.00
28588;BME280;15787;49.662;10.162;2023-03-22T05:55:19;98766.44;;;7.98;100.00
28588;BME280;15787;49.662;10.162;2023-03-22T05:57:57;98776.69;;;8.01;100.00
28588;BME280;15787;49.662;10.162;2023-03-22T06:00:31;98771.06;;;8.08;100.00
28588;BME280;15787;49.662;10.162;2023-03-22T06:03:24;98775.47;;;8.05;100.00
28588;BME280;15787;49.662;10.162;2023-03-22T06:06:14;98786.00;;;8.17;100.00
28588;BME280;15787;49.662;10.162;2023-03-22T06:09:10;98781.94;;;8.22;100.00
28588;BME280;15787;49.662;10.162;2023-03-22T06:11:52;98782.69;;;8.26;100.00
28588;BME280;15787;49.662;10.162;2023-03-22T06:14:26;98778.72;;;8.27;100.00
28588;BME280;15787;49.662;10.162;2023-03-22T06:17:11;98783.16;;;8.21;100.00
28588;BME280;15787;49.662;10.162;2023-03-22T06:19:45;98778.59;;;8.34;100.00
28588;BME280;15787;49.662;10.162;2023-03-22T06:22:20;98786.09;;;8.37;100.00
28588;BME280;15787;49.662;10.162;2023-03-22T06:24:53;98785.13;;;8.47;100.00
28588;BME280;15787;49.662;10.162;2023-03-22T06:27:36;98793.56;;;8.44;100.00
28588;BME280;15787;49.662;10.162;2023-03-22T06:30:10;98789.50;;;8.48;100.00
28588;BME280;15787;49.662;10.162;2023-03-22T06:33:01;98790.28;;;8.49;100.00
28588;BME280;15787;49.662;10.162;2023-03-22T06:35:38;98787.69;;;8.61;100.00
28588;BME280;15787;49.662;10.162;2023-03-22T06:38:17;98785.63;;;8.65;100.00
28588;BME280;15787;49.662;10.162;2023-03-22T06:40:50;98786.34;;;8.69;100.00
28588;BME280;15787;49.662;10.162;2023-03-22T06:43:24;98778.72;;;8.73;100.00
28588;BME280;15787;49.662;10.162;2023-03-22T06:46:09;98773.09;;;8.77;100.00
28588;BME280;15787;49.662;10.162;2023-03-22T06:48:49;98788.53;;;9.01;100.00
28588;BME280;15787;49.662;10.162;2023-03-22T06:51:22;98783.56;;;9.32;100.00
28588;BME280;15787;49.662;10.162;2023-03-22T06:53:57;98782.50;;;9.62;100.00
28588;BME280;15787;49.662;10.162;2023-03-22T06:56:30;98792.00;;;9.84;99.82
28588;BME280;15787;49.662;10.162;2023-03-22T06:59:04;98794.75;;;10.03;98.12
28588;BME280;15787;49.662;10.162;2023-03-22T07:01:37;98801.41;;;10.26;96.35
28588;BME280;15787;49.662;10.162;2023-03-22T07:04:10;98794.09;;;10.48;95.47
28588;BME280;15787;49.662;10.162;2023-03-22T07:06:44;98804.72;;;10.53;94.14
28588;BME280;15787;49.662;10.162;2023-03-22T07:09:19;98807.00;;;10.58;93.43
28588;BME280;15787;49.662;10.162;2023-03-22T07:11:57;98809.78;;;10.58;92.67
28588;BME280;15787;49.662;10.162;2023-03-22T07:14:30;98806.72;;;10.68;92.55
28588;BME280;15787;49.662;10.162;2023-03-22T07:17:12;98813.38;;;10.58;92.02
28588;BME280;15787;49.662;10.162;2023-03-22T07:19:45;98816.06;;;10.78;92.63
28588;BME280;15787;49.662;10.162;2023-03-22T07:22:18;98820.88;;;10.61;91.72
28588;BME280;15787;49.662;10.162;2023-03-22T07:24:56;98813.44;;;10.71;92.91
28588;BME280;15787;49.662;10.162;2023-03-22T07:27:34;98821.56;;;10.82;92.76
28588;BME280;15787;49.662;10.162;2023-03-22T07:30:09;98823.56;;;10.97;92.94
28588;BME280;15787;49.662;10.162;2023-03-22T07:32:47;98824.44;;;10.78;91.97
28588;BME280;15787;49.662;10.162;2023-03-22T07:35:19;98819.50;;;11.14;92.85
28588;BME280;15787;49.662;10.162;2023-03-22T07:37:53;98826.41;;;10.94;92.16
28588;BME280;15787;49.662;10.162;2023-03-22T07:40:33;98811.28;;;11.23;93.36
28588;BME280;15787;49.662;10.162;2023-03-22T07:43:07;98819.78;;;11.32;92.76
28588;BME280;15787;49.662;10.162;2023-03-22T07:46:05;98816.44;;;11.66;92.11
28588;BME280;15787;49.662;10.162;2023-03-22T07:48:57;98813.94;;;11.27;90.74
28588;BME280;15787;49.662;10.162;2023-03-22T07:51:50;98803.16;;;11.41;91.00
28588;BME280;15787;49.662;10.162;2023-03-22T07:54:23;98808.91;;;11.79;91.84
28588;BME280;15787;49.662;10.162;2023-03-22T07:57:07;98803.41;;;12.01;89.08
28588;BME280;15787;49.662;10.162;2023-03-22T07:59:46;98808.13;;;12.17;87.08
28588;BME280;15787;49.662;10.162;2023-03-22T08:02:19;98812.16;;;12.41;86.81
28588;BME280;15787;49.662;10.162;2023-03-22T08:04:56;98815.59;;;12.70;85.03
28588;BME280;15787;49.662;10.162;2023-03-22T08:07:39;98810.94;;;13.01;84.01
28588;BME280;15787;49.662;10.162;2023-03-22T08:10:14;98815.78;;;12.88;81.41
28588;BME280;15787;49.662;10.162;2023-03-22T08:12:49;98824.94;;;13.01;81.01
28588;BME280;15787;49.662;10.162;2023-03-22T08:15:27;98816.31;;;12.96;80.92
28588;BME280;15787;49.662;10.162;2023-03-22T08:18:00;98825.38;;;13.12;81.32
28588;BME280;15787;49.662;10.162;2023-03-22T08:20:39;98814.63;;;12.98;80.06
28588;BME280;15787;49.662;10.162;2023-03-22T08:23:18;98827.97;;;13.19;79.66
28588;BME280;15787;49.662;10.162;2023-03-22T08:26:23;98826.59;;;13.24;78.03
28588;BME280;15787;49.662;10.162;2023-03-22T08:29:00;98824.75;;;13.30;78.19
28588;BME280;15787;49.662;10.162;2023-03-22T08:31:36;98829.72;;;13.26;77.19
28588;BME280;15787;49.662;10.162;2023-03-22T08:34:09;98821.06;;;13.55;77.50
28588;BME280;15787;49.662;10.162;2023-03-22T08:36:42;98828.81;;;13.72;78.08
28588;BME280;15787;49.662;10.162;2023-03-22T08:39:15;98827.47;;;14.08;78.03
28588;BME280;15787;49.662;10.162;2023-03-22T08:41:56;98835.34;;;14.22;77.71
28588;BME280;15787;49.662;10.162;2023-03-22T08:44:32;98824.09;;;13.91;74.90
28588;BME280;15787;49.662;10.162;2023-03-22T08:47:06;98827.16;;;14.06;74.53
28588;BME280;15787;49.662;10.162;2023-03-22T08:49:39;98823.97;;;14.56;75.92
28588;BME280;15787;49.662;10.162;2023-03-22T08:52:26;98834.06;;;14.44;73.57
28588;BME280;15787;49.662;10.162;2023-03-22T08:55:22;98821.75;;;14.51;72.52
28588;BME280;15787;49.662;10.162;2023-03-22T08:58:14;98825.63;;;14.84;75.18
28588;BME280;15787;49.662;10.162;2023-03-22T09:01:11;98829.72;;;15.29;72.89
28588;BME280;15787;49.662;10.162;2023-03-22T09:04:06;98815.50;;;15.23;72.47
28588;BME280;15787;49.662;10.162;2023-03-22T09:06:41;98805.78;;;15.33;70.99
28588;BME280;15787;49.662;10.162;2023-03-22T09:09:16;98812.22;;;15.34;71.41
28588;BME280;15787;49.662;10.162;2023-03-22T09:11:53;98815.53;;;15.50;70.98
28588;BME280;15787;49.662;10.162;2023-03-22T09:14:27;98817.09;;;15.51;70.90
28588;BME280;15787;49.662;10.162;2023-03-22T09:17:03;98798.78;;;15.65;71.46
28588;BME280;15787;49.662;10.162;2023-03-22T09:19:36;98803.41;;;15.95;70.46
28588;BME280;15787;49.662;10.162;2023-03-22T09:22:10;98804.38;;;15.74;69.56
28588;BME280;15787;49.662;10.162;2023-03-22T09:24:49;98805.03;;;15.60;69.15
28588;BME280;15787;49.662;10.162;2023-03-22T09:27:22;98801.69;;;16.07;69.43
28588;BME280;15787;49.662;10.162;2023-03-22T09:29:55;98795.22;;;16.48;69.33
28588;BME280;15787;49.662;10.162;2023-03-22T09:32:29;98781.97;;;17.34;67.73
28588;BME280;15787;49.662;10.162;2023-03-22T09:35:06;98791.88;;;16.68;65.76
28588;BME280;15787;49.662;10.162;2023-03-22T09:37:48;98788.28;;;16.91;66.69
28588;BME280;15787;49.662;10.162;2023-03-22T09:40:26;98782.19;;;16.27;65.76
28588;BME280;15787;49.662;10.162;2023-03-22T09:43:03;98790.97;;;16.20;65.82
28588;BME280;15787;49.662;10.162;2023-03-22T09:45:40;98772.34;;;16.88;64.44
28588;BME280;15787;49.662;10.162;2023-03-22T09:48:19;98774.56;;;16.51;65.57
28588;BME280;15787;49.662;10.162;2023-03-22T09:50:54;98779.16;;;16.39;65.83
28588;BME280;15787;49.662;10.162;2023-03-22T09:53:28;98782.00;;;15.79;65.51
28588;BME280;15787;49.662;10.162;2023-03-22T09:56:08;98784.22;;;15.75;65.20
28588;BME280;15787;49.662;10.162;2023-03-22T09:58:47;98781.31;;;16.54;65.69
28588;BME280;15787;49.662;10.162;2023-03-22T10:01:29;98776.28;;;16.16;64.41
28588;BME280;15787;49.662;10.162;2023-03-22T10:04:20;98765.78;;;16.49;65.86
28588;BME280;15787;49.662;10.162;2023-03-22T10:07:05;98768.59;;;16.58;64.95
28588;BME280;15787;49.662;10.162;2023-03-22T10:09:48;98761.69;;;16.26;64.63
28588;BME280;15787;49.662;10.162;2023-03-22T10:12:28;98753.88;;;16.21;65.24
28588;BME280;15787;49.662;10.162;2023-03-22T10:15:05;98755.34;;;16.08;64.95
28588;BME280;15787;49.662;10.162;2023-03-22T10:17:41;98760.47;;;16.18;65.75
28588;BME280;15787;49.662;10.162;2023-03-22T10:20:37;98756.84;;;16.51;64.97
28588;BME280;15787;49.662;10.162;2023-03-22T10:23:15;98750.66;;;17.47;63.36
28588;BME280;15787;49.662;10.162;2023-03-22T10:25:50;98758.66;;;17.48;61.63
28588;BME280;15787;49.662;10.162;2023-03-22T10:28:29;98760.84;;;17.15;59.22
28588;BME280;15787;49.662;10.162;2023-03-22T10:31:04;98762.06;;;16.99;61.11
28588;BME280;15787;49.662;10.162;2023-03-22T10:33:39;98755.28;;;16.59;60.78
28588;BME280;15787;49.662;10.162;2023-03-22T10:36:25;98761.34;;;16.90;62.30
28588;BME280;15787;49.662;10.162;2023-03-22T10:39:02;98746.28;;;17.31;59.99
28588;BME280;15787;49.662;10.162;2023-03-22T10:41:36;98753.69;;;17.43;59.69
28588;BME280;15787;49.662;10.162;2023-03-22T10:44:14;98755.06;;;17.48;59.04
28588;BME280;15787;49.662;10.162;2023-03-22T10:46:50;98758.88;;;17.59;58.58
28588;BME280;15787;49.662;10.162;2023-03-22T10:49:27;98745.28;;;17.20;59.85
28588;BME280;15787;49.662;10.162;2023-03-22T10:52:08;98736.34;;;17.21;60.64
28588;BME280;15787;49.662;10.162;2023-03-22T10:54:48;98754.97;;;17.04;58.86
28588;BME280;15787;49.662;10.162;2023-03-22T10:57:22;98741.44;;;17.46;59.58
28588;BME280;15787;49.662;10.162;2023-03-22T10:59:56;98740.19;;;17.09;58.03
28588;BME280;15787;49.662;10.162;2023-03-22T11:02:31;98740.38;;;17.44;58.80
28588;BME280;15787;49.662;10.162;2023-03-22T11:05:05;98737.63;;;17.49;58.65
28588;BME280;15787;49.662;10.162;2023-03-22T11:07:42;98742.16;;;17.71;58.92
28588;BME280;15787;49.662;10.162;2023-03-22T11:10:27;98739.72;;;17.63;57.71
28588;BME280;15787;49.662;10.162;2023-03-22T11:13:16;98735.94;;;18.30;56.69
28588;BME280;15787;49.662;10.162;2023-03-22T11:15:54;98746.34;;;18.04;56.89
28588;BME280;15787;49.662;10.162;2023-03-22T11:18:31;98736.47;;;18.14;57.47
28588;BME280;15787;49.662;10.162;2023-03-22T11:21:06;98745.84;;;17.62;57.62
28588;BME280;15787;49.662;10.162;2023-03-22T11:23:51;98730.09;;;17.85;56.98
28588;BME280;15787;49.662;10.162;2023-03-22T11:26:29;98719.19;;;18.27;57.43
28588;BME280;15787;49.662;10.162;2023-03-22T11:29:10;98728.16;;;18.25;57.59
28588;BME280;15787;49.662;10.162;2023-03-22T11:31:54;98725.38;;;18.60;57.57
28588;BME280;15787;49.662;10.162;2023-03-22T11:34:29;98717.22;;;17.84;56.71
28588;BME280;15787;49.662;10.162;2023-03-22T11:37:07;98726.16;;;18.11;57.76
28588;BME280;15787;49.662;10.162;2023-03-22T11:39:45;98716.59;;;18.44;57.08
28588;BME280;15787;49.662;10.162;2023-03-22T11:42:19;98718.59;;;18.72;57.74
28588;BME280;15787;49.662;10.162;2023-03-22T11:44:54;98711.66;;;18.73;57.39
28588;BME280;15787;49.662;10.162;2023-03-22T11:47:33;98705.22;;;18.53;57.01
28588;BME280;15787;49.662;10.162;2023-03-22T11:50:22;98689.66;;;18.28;57.31
28588;BME280;15787;49.662;10.162;2023-03-22T11:52:56;98704.94;;;18.01;57.95
28588;BME280;15787;49.662;10.162;2023-03-22T11:55:35;98689.19;;;19.10;57.11
28588;BME280;15787;49.662;10.162;2023-03-22T11:58:22;98691.44;;;18.80;55.24
28588;BME280;15787;49.662;10.162;2023-03-22T12:00:58;98674.22;;;18.09;55.91
28588;BME280;15787;49.662;10.162;2023-03-22T12:03:35;98680.78;;;18.35;56.68
28588;BME280;15787;49.662;10.162;2023-03-22T12:06:18;98673.84;;;18.01;57.58
28588;BME280;15787;49.662;10.162;2023-03-22T12:08:55;98675.53;;;18.28;58.02
28588;BME280;15787;49.662;10.162;2023-03-22T12:11:35;98684.50;;;18.61;56.68
28588;BME280;15787;49.662;10.162;2023-03-22T12:14:15;98675.34;;;18.92;56.46
28588;BME280;15787;49.662;10.162;2023-03-22T12:16:55;98673.59;;;19.40;54.40
28588;BME280;15787;49.662;10.162;2023-03-22T12:19:40;98670.97;;;19.11;54.35
28588;BME280;15787;49.662;10.162;2023-03-22T12:22:17;98676.47;;;19.00;54.61
28588;BME280;15787;49.662;10.162;2023-03-22T12:24:52;98674.22;;;18.09;54.66
28588;BME280;15787;49.662;10.162;2023-03-22T12:27:30;98670.94;;;18.65;55.46
28588;BME280;15787;49.662;10.162;2023-03-22T12:30:10;98664.69;;;18.81;54.21
28588;BME280;15787;49.662;10.162;2023-03-22T12:32:47;98651.97;;;19.17;55.33
28588;BME280;15787;49.662;10.162;2023-03-22T12:35:25;98647.56;;;18.90;53.86
28588;BME280;15787;49.662;10.162;2023-03-22T12:38:03;98653.66;;;18.83;54.30
28588;BME280;15787;49.662;10.162;2023-03-22T12:40:40;98647.31;;;18.48;55.09
28588;BME280;15787;49.662;10.162;2023-03-22T12:43:17;98650.25;;;18.39;54.98
28588;BME280;15787;49.662;10.162;2023-03-22T12:45:58;98645.34;;;18.54;54.88
28588;BME280;15787;49.662;10.162;2023-03-22T12:48:35;98637.69;;;18.40;55.68
28588;BME280;15787;49.662;10.162;2023-03-22T12:51:12;98635.94;;;18.63;55.62
28588;BME280;15787;49.662;10.162;2023-03-22T12:53:48;98632.19;;;18.51;56.14
28588;BME280;15787;49.662;10.162;2023-03-22T12:56:25;98634.03;;;18.54;55.05
28588;BME280;15787;49.662;10.162;2023-03-22T12:59:04;98628.81;;;18.47;55.53
28588;BME280;15787;49.662;10.162;2023-03-22T13:01:44;98623.03;;;18.21;54.93
28588;BME280;15787;49.662;10.162;2023-03-22T13:04:46;98617.75;;;18.29;54.48
28588;BME280;15787;49.662;10.162;2023-03-22T13:07:51;98608.25;;;19.18;54.65
28588;BME280;15787;49.662;10.162;2023-03-22T13:10:56;98608.84;;;19.53;52.66
28588;BME280;15787;49.662;10.162;2023-03-22T13:13:39;98613.22;;;18.77;52.80
28588;BME280;15787;49.662;10.162;2023-03-22T13:16:17;98597.94;;;18.09;54.60
28588;BME280;15787;49.662;10.162;2023-03-22T13:19:00;98598.03;;;18.35;53.77
28588;BME280;15787;49.662;10.162;2023-03-22T13:21:34;98599.91;;;18.23;54.58
28588;BME280;15787;49.662;10.162;2023-03-22T13:24:21;98602.22;;;18.59;55.15
28588;BME280;15787;49.662;10.162;2023-03-22T13:26:57;98595.31;;;18.05;54.99
28588;BME280;15787;49.662;10.162;2023-03-22T13:29:33;98597.00;;;18.52;54.64
28588;BME280;15787;49.662;10.162;2023-03-22T13:32:27;98598.31;;;18.57;55.24
28588;BME280;15787;49.662;10.162;2023-03-22T13:35:01;98592.72;;;18.82;55.00
28588;BME280;15787;49.662;10.162;2023-03-22T13:37:47;98594.06;;;18.26;53.68
28588;BME280;15787;49.662;10.162;2023-03-22T13:40:27;98591.25;;;18.26;55.01
28588;BME280;15787;49.662;10.162;2023-03-22T13:43:18;98591.88;;;18.56;53.84
28588;BME280;15787;49.662;10.162;2023-03-22T13:46:05;98589.91;;;18.62;52.72
28588;BME280;15787;49.662;10.162;2023-03-22T13:48:52;98592.03;;;18.67;52.03
28588;BME280;15787;49.662;10.162;2023-03-22T13:51:29;98574.50;;;18.89;51.87
28588;BME280;15787;49.662;10.162;2023-03-22T13:54:06;98574.84;;;18.71;52.28
28588;BME280;15787;49.662;10.162;2023-03-22T13:56:51;98571.47;;;19.18;52.53